Time;durP1;ratioP1;P1;durP2;ratioP2;P2;SDS_P1;SDS_P2;PMS_P1;PMS_P2;Temp;Humidity;BMP_temperature;BMP_pressure;BME280_temperature;BME280_humidity;BME280_pressure;Samples;Min_cycle;Max_cycle;Signal;HPM_P1;HPM_P2
2024/03/23 00:00:17;;;;;;;11.57;6.57;;;;;;;5.43;73.44;100292.28;5089351;28;20493;-80
2024/03/23 00:02:43;;;;;;;10.93;6.50;;;;;;;5.58;74.20;100286.19;5088735;28;20052;-78
2024/03/23 00:05:09;;;;;;;12.45;6.38;;;;;;;5.89;71.89;100293.16;5089408;28;20039;-80
2024/03/23 00:07:36;;;;;;;11.40;6.28;;;;;;;5.76;72.68;100286.66;5089217;28;20032;-80
2024/03/23 00:10:04;;;;;;;11.85;6.40;;;;;;;5.65;72.75;100295.03;5088827;28;20035;-79
2024/03/23 00:12:30;;;;;;;20.40;7.32;;;;;;;5.75;72.06;100285.00;5088596;28;20024;-79
2024/03/23 00:14:57;;;;;;;17.75;7.65;;;;;;;5.63;72.62;100286.47;5070530;28;20047;-79
2024/03/23 00:17:23;;;;;;;17.42;7.32;;;;;;;5.27;75.42;100284.50;5088488;28;20028;-79
2024/03/23 00:19:49;;;;;;;13.38;6.95;;;;;;;5.12;75.80;100283.63;5088698;28;20028;-80
2024/03/23 00:22:16;;;;;;;9.85;6.32;;;;;;;5.23;76.45;100281.38;5088502;28;20467;-80
2024/03/23 00:24:42;;;;;;;11.75;6.30;;;;;;;5.18;75.83;100288.19;5088474;28;20489;-79
2024/03/23 00:27:09;;;;;;;11.32;6.20;;;;;;;5.33;74.80;100285.59;5089195;28;20050;-79
2024/03/23 00:29:35;;;;;;;11.52;5.95;;;;;;;5.44;73.94;100283.34;5088500;28;20043;-80
2024/03/23 00:32:02;;;;;;;11.38;6.35;;;;;;;5.49;74.05;100285.44;5070308;28;20038;-80
2024/03/23 00:34:28;;;;;;;10.60;6.10;;;;;;;5.60;73.34;100287.66;5088503;28;20051;-80
2024/03/23 00:36:54;;;;;;;12.32;6.97;;;;;;;5.35;74.95;100283.59;5088211;28;20424;-80
2024/03/23 00:39:21;;;;;;;9.95;5.82;;;;;;;5.31;74.54;100285.78;5070090;28;20047;-79
2024/03/23 00:41:47;;;;;;;10.18;6.40;;;;;;;5.45;73.52;100294.72;5088227;28;20059;-80
2024/03/23 00:44:14;;;;;;;12.02;6.70;;;;;;;5.38;73.56;100292.00;5070366;28;20048;-80
2024/03/23 00:46:41;;;;;;;14.45;6.70;;;;;;;5.46;73.51;100280.53;5088441;28;20020;-79
2024/03/23 00:49:07;;;;;;;11.65;6.38;;;;;;;5.26;74.50;100295.25;5088602;28;20541;-80
2024/03/23 00:51:34;;;;;;;9.57;6.10;;;;;;;5.53;73.09;100291.19;5088329;28;20032;-80
2024/03/23 00:53:59;;;;;;;15.07;6.60;;;;;;;5.38;73.51;100296.47;5087979;28;20027;-79
2024/03/23 00:56:25;;;;;;;11.07;5.68;;;;;;;5.19;73.88;100274.81;5088418;28;20035;-80
2024/03/23 00:58:50;;;;;;;11.45;6.53;;;;;;;5.23;74.03;100283.19;5069878;28;20024;-80
2024/03/23 01:01:15;;;;;;;10.43;6.32;;;;;;;4.91;74.58;100240.19;5088101;28;20035;-80
2024/03/23 01:03:41;;;;;;;12.38;6.50;;;;;;;5.18;74.70;100261.75;5087512;28;20028;-80
2024/03/23 01:06:06;;;;;;;12.85;6.65;;;;;;;5.21;73.37;100246.38;5088041;28;20054;-80
2024/03/23 01:08:32;;;;;;;13.88;8.18;;;;;;;5.04;75.70;100277.38;5088112;28;20028;-80
2024/03/23 01:10:59;;;;;;;11.23;6.75;;;;;;;4.92;77.08;100270.88;5086988;28;20032;-80
2024/03/23 01:13:26;;;;;;;12.60;6.87;;;;;;;4.72;78.33;100262.63;5087702;28;20024;-80
2024/03/23 01:15:52;;;;;;;12.10;6.55;;;;;;;4.69;76.31;100225.97;5087768;28;20036;-79
2024/03/23 01:18:18;;;;;;;13.10;6.93;;;;;;;4.81;77.71;100266.84;5087693;28;20519;-80
2024/03/23 01:20:44;;;;;;;16.10;7.43;;;;;;;4.90;77.28;100264.13;5069532;28;20515;-79
2024/03/23 01:23:10;;;;;;;16.05;8.13;;;;;;;4.92;76.74;100259.50;5087424;28;20031;-79
2024/03/23 01:25:35;;;;;;;18.08;8.82;;;;;;;4.79;76.12;100236.31;5069382;28;20120;-80
2024/03/23 01:28:01;;;;;;;23.20;9.02;;;;;;;4.98;75.39;100240.28;5087725;28;20032;-80
2024/03/23 01:30:34;;;;;;;19.23;11.52;;;;;;;5.06;75.86;100274.56;5063708;28;20379;-79
2024/03/23 01:33:00;;;;;;;25.83;11.20;;;;;;;4.83;77.42;100258.72;5064189;28;20071;-80
2024/03/23 01:35:26;;;;;;;27.58;15.20;;;;;;;5.09;76.96;100273.38;5063985;28;20885;-80
2024/03/23 01:37:51;;;;;;;39.55;22.20;;;;;;;5.08;75.06;100240.84;5063605;28;20056;-79
2024/03/23 01:40:17;;;;;;;31.85;17.58;;;;;;;4.61;75.39;100212.81;5063876;28;20495;-79
2024/03/23 01:42:42;;;;;;;23.77;13.68;;;;;;;4.63;79.00;100274.22;5064177;28;20044;-79
2024/03/23 01:45:09;;;;;;;35.78;17.60;;;;;;;4.27;82.42;100274.78;5063668;28;20032;-79
2024/03/23 01:47:35;;;;;;;20.90;11.02;;;;;;;4.15;79.95;100249.75;5063391;28;20039;-78
2024/03/23 01:50:01;;;;;;;18.83;10.30;;;;;;;4.31;79.22;100249.66;5063384;28;20025;-79
2024/03/23 01:52:27;;;;;;;14.93;9.63;;;;;;;4.39;77.86;100212.66;5063850;28;20108;-79
2024/03/23 01:54:53;;;;;;;19.85;10.88;;;;;;;4.43;77.33;100224.50;5066232;28;20170;-79
2024/03/23 01:57:20;;;;;;;26.35;14.95;;;;;;;4.83;75.98;100254.25;5061567;28;20116;-79
2024/03/23 01:59:45;;;;;;;23.08;13.43;;;;;;;4.43;78.68;100260.63;5062060;28;20512;-80
2024/03/23 02:02:11;;;;;;;25.02;13.63;;;;;;;4.12;80.33;100268.56;5061993;28;20563;-79
2024/03/23 02:04:36;;;;;;;27.40;14.98;;;;;;;4.35;78.46;100266.81;5064770;28;20029;-78
2024/03/23 02:07:02;;;;;;;27.25;15.32;;;;;;;4.38;77.36;100253.25;5062025;28;20494;-79
2024/03/23 02:09:28;;;;;;;35.03;18.77;;;;;;;4.23;77.90;100241.78;5062835;28;20033;-81
2024/03/23 02:11:54;;;;;;;56.75;28.38;;;;;;;4.39;77.71;100251.41;5063386;28;20044;-79
2024/03/23 02:14:19;;;;;;;34.40;19.30;;;;;;;3.92;79.63;100223.28;5062762;28;20017;-79
2024/03/23 02:16:47;;;;;;;25.92;13.73;;;;;;;3.58;83.32;100285.88;5063024;28;20635;-80
2024/03/23 02:19:12;;;;;;;49.00;25.55;;;;;;;3.46;83.54;100271.38;5063053;28;20058;-80
2024/03/23 02:21:37;;;;;;;25.83;14.38;;;;;;;3.90;82.90;100270.13;5062990;28;20492;-80
2024/03/23 02:24:03;;;;;;;20.13;11.40;;;;;;;3.95;80.99;100258.06;5062690;28;20043;-79
2024/03/23 02:26:28;;;;;;;19.60;11.00;;;;;;;3.60;84.65;100278.63;5062858;28;20027;-79
2024/03/23 02:28:54;;;;;;;19.80;10.05;;;;;;;3.94;81.87;100237.97;5061233;28;20052;-80
2024/03/23 02:31:19;;;;;;;17.40;10.20;;;;;;;4.16;80.83;100283.06;5062719;28;20498;-79
2024/03/23 02:33:44;;;;;;;17.95;10.45;;;;;;;4.03;80.44;100268.59;5061421;28;20044;-80
2024/03/23 02:36:10;;;;;;;16.90;10.68;;;;;;;3.57;80.08;100215.66;5062608;28;20504;-79
2024/03/23 02:38:35;;;;;;;14.00;9.70;;;;;;;3.50;82.80;100241.06;5062511;28;20051;-80
2024/03/23 02:41:03;;;;;;;17.55;9.98;;;;;;;3.65;83.31;100286.00;5054591;28;20514;-80
2024/03/23 02:43:29;;;;;;;15.02;10.45;;;;;;;3.51;84.41;100269.06;5049390;28;21396;-80
2024/03/23 02:45:54;;;;;;;16.20;9.45;;;;;;;3.96;81.35;100278.19;5049246;28;20037;-80
2024/03/23 02:48:19;;;;;;;15.30;9.52;;;;;;;3.87;81.77;100273.94;5047833;28;20029;-80
2024/03/23 02:50:45;;;;;;;17.55;10.40;;;;;;;3.77;80.69;100262.75;5049078;28;20515;-80
2024/03/23 02:53:11;;;;;;;18.02;10.85;;;;;;;3.54;83.63;100281.09;5047390;28;20048;-80
2024/03/23 02:55:36;;;;;;;19.85;10.57;;;;;;;3.58;81.95;100274.50;5049419;28;20032;-80
2024/03/23 02:58:01;;;;;;;16.67;10.98;;;;;;;2.93;84.45;100249.03;5047805;28;20074;-80
2024/03/23 03:00:28;;;;;;;18.00;10.25;;;;;;;3.27;83.23;100279.63;5048813;28;20051;-79
2024/03/23 03:02:53;;;;;;;16.63;10.07;;;;;;;3.36;81.46;100260.19;5048531;28;20029;-79
2024/03/23 03:05:19;;;;;;;22.17;14.32;;;;;;;3.19;81.20;100254.94;5049116;28;20082;-78
2024/03/23 03:07:44;;;;;;;19.27;11.57;;;;;;;2.98;82.08;100236.16;5048907;28;20030;-79
2024/03/23 03:10:11;;;;;;;14.07;8.13;;;;;;;3.00;80.92;100253.47;5048785;28;20021;-79
2024/03/23 03:12:37;;;;;;;14.93;8.68;;;;;;;3.10;81.94;100263.03;5048555;28;20025;-80
2024/03/23 03:15:04;;;;;;;15.93;9.23;;;;;;;2.88;82.15;100225.81;5048703;28;20112;-80
2024/03/23 03:17:30;;;;;;;13.98;8.93;;;;;;;2.91;84.31;100277.34;5047419;28;20032;-80
2024/03/23 03:19:55;;;;;;;15.63;8.75;;;;;;;2.69;86.67;100250.66;5048556;28;20033;-80
2024/03/23 03:22:24;;;;;;;15.23;9.65;;;;;;;2.67;89.07;100278.94;5048650;28;20395;-80
2024/03/23 03:24:49;;;;;;;19.02;11.07;;;;;;;2.90;86.71;100259.88;5048633;28;20045;-80
2024/03/23 03:27:15;;;;;;;20.08;12.40;;;;;;;2.95;87.12;100254.97;5046989;28;20045;-80
2024/03/23 03:29:40;;;;;;;20.33;12.05;;;;;;;2.94;86.57;100266.47;5048532;28;20057;-80
2024/03/23 03:32:06;;;;;;;17.23;10.38;;;;;;;2.75;87.96;100271.06;5048399;28;20032;-80
2024/03/23 03:34:31;;;;;;;19.58;11.82;;;;;;;2.69;87.46;100247.19;5048782;28;20028;-80
2024/03/23 03:36:57;;;;;;;20.45;10.93;;;;;;;2.49;88.67;100241.41;5046913;28;20029;-80
2024/03/23 03:39:23;;;;;;;20.05;11.02;;;;;;;3.13;86.36;100268.78;5048593;28;20029;-79
2024/03/23 03:41:49;;;;;;;15.73;9.10;;;;;;;2.30;89.51;100282.00;5048722;28;20024;-80
2024/03/23 03:44:15;;;;;;;17.33;9.23;;;;;;;1.83;93.71;100275.38;5047550;28;20033;-79
2024/03/23 03:46:40;;;;;;;18.33;8.90;;;;;;;2.16;91.80;100267.63;5048206;28;20556;-79
2024/03/23 03:49:05;;;;;;;17.08;8.57;;;;;;;2.07;90.94;100258.09;5047795;28;20037;-80
2024/03/23 03:51:31;;;;;;;15.10;8.65;;;;;;;2.25;89.60;100263.22;5048426;28;20036;-79
2024/03/23 03:53:56;;;;;;;14.55;8.65;;;;;;;2.51;87.55;100257.88;5047183;28;20021;-79
2024/03/23 03:56:22;;;;;;;14.55;8.52;;;;;;;2.55;86.20;100240.75;5048158;28;20027;-80
2024/03/23 03:58:48;;;;;;;18.20;9.63;;;;;;;2.36;90.24;100295.34;5046672;28;20067;-79
2024/03/23 04:01:13;;;;;;;19.73;9.68;;;;;;;2.81;86.61;100288.84;5046617;28;20114;-79
2024/03/23 04:03:43;;;;;;;17.27;9.32;;;;;;;2.29;87.83;100241.72;5047713;28;20512;-79
2024/03/23 04:06:09;;;;;;;16.83;9.07;;;;;;;1.83;91.14;100270.13;5042177;28;20123;-79
2024/03/23 04:08:34;;;;;;;15.23;8.18;;;;;;;1.70;93.37;100267.94;5060660;28;20140;-79
2024/03/23 04:10:59;;;;;;;124.60;64.80;;;;;;;2.31;88.48;100270.47;5059884;28;20029;-79
2024/03/23 04:13:25;;;;;;;71.85;39.45;;;;;;;2.65;86.84;100280.09;5047249;28;20087;-79
2024/03/23 04:15:55;;;;;;;17.75;10.10;;;;;;;2.67;87.21;100297.38;5046517;28;20672;-79
2024/03/23 04:18:21;;;;;;;19.02;10.40;;;;;;;2.33;87.82;100285.16;5047619;28;20102;-79
2024/03/23 04:20:47;;;;;;;15.05;8.73;;;;;;;2.15;89.86;100293.13;5052201;28;20024;-79
2024/03/23 04:23:12;;;;;;;15.02;7.97;;;;;;;2.31;88.38;100297.63;5066683;28;20070;-80
2024/03/23 04:25:37;;;;;;;15.68;7.82;;;;;;;2.24;89.57;100299.25;5049710;28;20025;-78
2024/03/23 04:28:04;;;;;;;13.57;7.00;;;;;;;2.34;90.36;100307.00;5047546;28;20375;-80
2024/03/23 04:30:30;;;;;;;12.40;7.32;;;;;;;2.41;91.14;100285.16;5047128;28;20045;-80
2024/03/23 04:32:56;;;;;;;20.42;12.02;;;;;;;2.47;90.59;100280.22;5047657;28;20047;-80
2024/03/23 04:35:25;;;;;;;28.65;17.80;;;;;;;2.47;92.23;100296.03;5046987;28;20036;-80
2024/03/23 04:37:51;;;;;;;17.38;10.40;;;;;;;2.32;94.39;100287.94;5046955;28;20037;-81
2024/03/23 04:40:17;;;;;;;19.35;12.38;;;;;;;2.68;92.09;100296.41;5047034;28;20036;-79
2024/03/23 04:42:43;;;;;;;37.20;23.30;;;;;;;2.60;93.16;100286.69;5047098;28;20078;-79
2024/03/23 04:45:08;;;;;;;25.98;16.95;;;;;;;2.58;92.83;100266.78;5049457;28;20448;-80
2024/03/23 04:47:35;;;;;;;30.58;21.90;;;;;;;2.83;92.24;100301.88;5046844;28;20445;-79
2024/03/23 04:50:01;;;;;;;21.60;11.75;;;;;;;2.63;92.34;100301.31;5045787;28;20025;-80
2024/03/23 04:52:27;;;;;;;15.63;8.25;;;;;;;2.77;91.41;100295.44;5046948;28;20033;-80
2024/03/23 04:54:52;;;;;;;13.85;8.32;;;;;;;2.86;90.63;100284.91;5047005;28;20040;-79
2024/03/23 04:57:18;;;;;;;14.65;8.00;;;;;;;2.77;90.71;100276.19;5046526;28;20036;-81
2024/03/23 04:59:43;;;;;;;14.43;9.10;;;;;;;2.92;88.35;100276.34;5045770;28;20091;-80
2024/03/23 05:02:09;;;;;;;14.27;7.53;;;;;;;3.14;87.82;100290.69;5046396;28;20513;-80
2024/03/23 05:04:36;;;;;;;14.85;7.55;;;;;;;3.08;88.59;100301.88;5046665;28;20037;-80
2024/03/23 05:07:02;;;;;;;15.17;7.83;;;;;;;2.99;89.43;100296.63;5045472;28;20417;-80
2024/03/23 05:09:29;;;;;;;13.48;7.72;;;;;;;2.92;88.82;100232.41;5046646;28;20029;-81
2024/03/23 05:11:55;;;;;;;15.38;8.30;;;;;;;3.56;87.13;100301.03;5047524;28;20095;-80
2024/03/23 05:14:21;;;;;;;15.98;8.23;;;;;;;3.08;89.63;100294.78;5045368;28;20445;-80
2024/03/23 05:16:46;;;;;;;13.65;8.52;;;;;;;3.34;89.46;100305.19;5046755;28;20064;-80
2024/03/23 05:19:11;;;;;;;15.23;8.55;;;;;;;3.44;88.17;100275.19;5046455;28;20039;-81
2024/03/23 05:21:37;;;;;;;19.55;12.73;;;;;;;3.46;87.71;100271.38;5046311;28;20072;-80
2024/03/23 05:24:03;;;;;;;39.60;16.20;;;;;;;3.44;90.72;100293.66;5044975;28;20112;-80
2024/03/23 05:26:28;;;;;;;44.53;30.67;;;;;;;3.83;88.78;100312.19;5046311;28;20029;-81
2024/03/23 05:28:54;;;;;;;44.83;30.52;;;;;;;3.91;86.85;100301.63;5046472;28;20053;-80
2024/03/23 05:31:26;;;;;;;20.50;12.40;;;;;;;4.20;86.71;100314.22;5046745;28;20087;-80
2024/03/23 05:33:53;;;;;;;18.83;10.00;;;;;;;3.60;87.62;100283.06;5046838;28;20043;-80
2024/03/23 05:36:18;;;;;;;15.63;7.95;;;;;;;3.78;85.18;100269.66;5045889;28;20556;-80
2024/03/23 05:38:44;;;;;;;14.77;8.52;;;;;;;4.01;86.73;100304.88;5046215;28;20033;-80
2024/03/23 05:41:10;;;;;;;13.40;8.32;;;;;;;4.30;86.64;100321.94;5046662;28;20497;-80
2024/03/23 05:43:35;;;;;;;23.40;14.55;;;;;;;4.79;81.14;100313.75;5044929;28;20036;-80
2024/03/23 05:46:10;;;;;;;26.40;16.20;;;;;;;4.18;85.40;100281.88;5044800;28;20056;-80
2024/03/23 05:48:36;;;;;;;26.02;17.88;;;;;;;4.15;86.01;100284.06;5046227;28;20145;-81
2024/03/23 05:51:02;;;;;;;28.25;16.10;;;;;;;4.56;85.07;100297.88;5046043;28;20479;-80
2024/03/23 05:53:31;;;;;;;17.58;9.60;;;;;;;4.84;85.00;100313.22;5046166;28;20036;-79
2024/03/23 05:56:03;;;;;;;15.85;9.25;;;;;;;4.53;85.54;100316.69;5046121;28;20068;-80
2024/03/23 05:58:29;;;;;;;14.82;8.25;;;;;;;4.48;83.83;100305.03;5046029;28;20505;-80
2024/03/23 06:01:01;;;;;;;14.10;8.65;;;;;;;4.74;81.09;100280.91;5045973;28;20033;-80
2024/03/23 06:03:30;;;;;;;16.98;8.80;;;;;;;4.62;84.06;100315.66;5045798;28;20032;-81
2024/03/23 06:05:55;;;;;;;;;;;;;;;4.59;86.12;100318.66;5048670;28;20044;-80
2024/03/23 06:08:22;;;;;;;15.93;8.88;;;;;;;4.60;86.02;100296.53;5045946;28;19912;-80
2024/03/23 06:10:47;;;;;;;14.80;8.35;;;;;;;4.62;88.15;100299.00;5046412;28;20029;-80
2024/03/23 06:13:13;;;;;;;14.40;8.00;;;;;;;4.79;86.78;100252.97;5046014;28;20564;-80
2024/03/23 06:15:39;;;;;;;16.27;11.18;;;;;;;5.48;81.82;100310.25;5046877;28;20560;-80
2024/03/23 06:18:05;;;;;;;14.30;9.02;;;;;;;5.73;81.08;100302.91;5048238;28;20033;-79
2024/03/23 06:20:31;;;;;;;16.95;8.70;;;;;;;5.99;80.94;100297.19;5049736;28;20021;-80
2024/03/23 06:22:56;;;;;;;15.32;9.07;;;;;;;5.66;82.13;100293.22;5048113;28;20573;-79
2024/03/23 06:25:22;;;;;;;14.82;9.13;;;;;;;5.56;83.80;100275.78;5045278;28;20021;-80
2024/03/23 06:27:47;;;;;;;13.82;8.13;;;;;;;5.92;82.30;100290.94;5047742;28;20028;-80
2024/03/23 06:30:13;;;;;;;15.32;8.82;;;;;;;5.96;81.94;100265.78;5048958;28;20051;-79
2024/03/23 06:32:38;;;;;;;18.13;8.38;;;;;;;6.28;80.10;100270.88;5049710;28;20033;-80
2024/03/23 06:35:08;;;;;;;12.88;7.47;;;;;;;6.14;79.24;100288.41;5047965;28;20025;-80
2024/03/23 06:37:36;;;;;;;12.98;8.45;;;;;;;6.79;78.81;100302.63;5043847;28;20197;-80
2024/03/23 06:40:04;;;;;;;13.20;8.02;;;;;;;6.62;77.99;100254.34;5053271;28;20175;-80
2024/03/23 06:42:30;;;;;;;12.70;7.30;;;;;;;7.04;77.20;100274.69;5049500;28;20041;-80
2024/03/23 06:44:55;;;;;;;13.35;7.43;;;;;;;7.35;75.38;100297.41;5042507;28;20037;-79
2024/03/23 06:47:20;;;;;;;14.93;8.07;;;;;;;7.56;75.85;100283.28;5049733;28;20108;-80
2024/03/23 06:49:46;;;;;;;14.85;7.38;;;;;;;7.67;74.08;100289.06;5048930;28;20029;-80
2024/03/23 06:52:11;;;;;;;14.15;7.70;;;;;;;7.98;73.74;100292.09;5049375;28;20409;-79
2024/03/23 06:54:36;;;;;;;12.88;7.70;;;;;;;7.54;71.44;100292.44;5047720;28;20032;-80
2024/03/23 06:57:02;;;;;;;14.52;7.57;;;;;;;7.81;71.04;100298.75;5046454;28;20118;-79
2024/03/23 06:59:28;;;;;;;16.02;7.60;;;;;;;7.73;70.57;100267.88;5038019;28;20029;-80
2024/03/23 07:01:53;;;;;;;11.40;7.10;;;;;;;8.52;64.67;100301.19;5036005;28;20032;-79
2024/03/23 07:04:19;;;;;;;12.75;7.45;;;;;;;8.71;64.07;100302.25;5041013;28;20085;-79
2024/03/23 07:06:45;;;;;;;12.70;7.80;;;;;;;8.20;67.32;100284.88;5036656;28;20025;-79
2024/03/23 07:09:11;;;;;;;15.80;7.65;;;;;;;8.54;67.91;100300.97;5047067;28;20564;-79
2024/03/23 07:11:36;;;;;;;13.25;7.72;;;;;;;8.72;64.70;100279.94;5048218;28;20041;-79
2024/03/23 07:14:02;;;;;;;12.63;7.30;;;;;;;8.62;63.88;100296.31;5046954;28;20568;-80
2024/03/23 07:16:28;;;;;;;13.25;7.43;;;;;;;8.19;66.99;100288.56;5048410;28;20036;-79
2024/03/23 07:18:54;;;;;;;14.02;7.70;;;;;;;8.77;65.03;100282.84;5048304;28;20032;-79
2024/03/23 07:21:19;;;;;;;13.57;8.02;;;;;;;8.98;64.50;100270.38;5048299;28;20025;-79
2024/03/23 07:23:45;;;;;;;11.68;6.78;;;;;;;9.34;65.00;100253.22;5047347;28;20090;-79
2024/03/23 07:26:11;;;;;;;12.15;7.40;;;;;;;9.65;64.36;100279.16;5046786;28;20467;-79
2024/03/23 07:28:38;;;;;;;13.48;6.97;;;;;;;9.36;63.54;100289.22;5057566;28;20048;-79
2024/03/23 07:31:10;;;;;;;12.32;7.10;;;;;;;9.70;63.99;100287.34;5047173;28;20060;-79
2024/03/23 07:33:38;;;;;;;11.25;6.93;;;;;;;9.58;63.67;100292.50;5048208;28;20039;-80
2024/03/23 07:36:04;;;;;;;11.30;8.18;;;;;;;9.60;62.34;100263.81;5053031;28;20025;-79
2024/03/23 07:38:29;;;;;;;12.35;7.60;;;;;;;9.74;61.06;100269.09;5055784;28;20424;-80
2024/03/23 07:41:04;;;;;;;10.70;6.97;;;;;;;10.00;59.99;100293.00;5061192;28;20035;-79
2024/03/23 07:43:29;;;;;;;11.45;7.25;;;;;;;9.98;59.81;100267.63;5059514;28;20036;-79
2024/03/23 07:45:54;;;;;;;12.18;7.15;;;;;;;10.30;58.89;100276.56;5060834;28;20029;-79
2024/03/23 07:48:23;;;;;;;12.30;6.78;;;;;;;10.79;57.24;100288.41;5060171;28;20025;-78
2024/03/23 07:51:11;;;;;;;11.35;6.90;;;;;;;10.72;57.11;100292.94;5059871;28;19931;-79
2024/03/23 07:53:37;;;;;;;11.27;6.88;;;;;;;10.88;57.95;100280.13;5060158;28;20405;-78
2024/03/23 07:56:06;;;;;;;10.05;6.82;;;;;;;11.02;58.46;100271.00;5060439;28;20032;-78
2024/03/23 07:58:31;;;;;;;13.00;7.63;;;;;;;11.43;55.68;100280.31;5053031;28;20518;-78
2024/03/23 08:01:14;;;;;;;12.05;6.72;;;;;;;11.04;55.85;100252.94;5053623;28;20052;-77
2024/03/23 08:03:41;;;;;;;13.38;6.32;;;;;;;11.31;57.46;100274.06;5052458;28;20565;-77
2024/03/23 08:06:19;;;;;;;10.88;7.30;;;;;;;11.30;53.53;100225.19;5053222;28;20037;-77
2024/03/23 08:08:46;;;;;;;11.77;6.53;;;;;;;11.55;53.73;100267.06;5053667;28;20021;-77
2024/03/23 08:11:12;;;;;;;13.50;6.55;;;;;;;11.38;53.50;100275.66;5033175;28;20037;-77
2024/03/23 08:13:42;;;;;;;9.43;6.22;;;;;;;11.24;51.91;100268.78;5043367;28;20106;-78
2024/03/23 08:16:08;;;;;;;11.40;6.82;;;;;;;11.60;53.06;100243.97;5052120;28;20107;-78
2024/03/23 08:18:34;;;;;;;11.48;6.97;;;;;;;11.46;52.95;100253.16;5052066;28;20055;-79
2024/03/23 08:21:04;;;;;;;10.95;6.70;;;;;;;11.69;55.11;100265.06;5051034;28;20072;-78
2024/03/23 08:23:39;;;;;;;13.52;8.48;;;;;;;12.06;51.42;100266.75;5051005;28;20049;-78
2024/03/23 08:26:10;;;;;;;11.98;7.80;;;;;;;12.13;54.08;100247.97;5049107;28;20106;-79
2024/03/23 08:28:36;;;;;;;11.93;7.32;;;;;;;11.88;55.83;100263.25;5056345;28;20045;-78
2024/03/23 08:31:05;;;;;;;10.93;7.05;;;;;;;11.94;55.55;100251.69;5051105;28;20031;-79
2024/03/23 08:33:30;;;;;;;13.15;7.18;;;;;;;12.43;53.38;100245.31;5049256;28;20029;-80
2024/03/23 08:35:57;;;;;;;12.63;7.63;;;;;;;12.24;54.05;100238.38;5048140;28;20040;-80
2024/03/23 08:38:23;;;;;;;11.25;7.68;;;;;;;12.34;54.64;100253.88;5046499;28;20203;-79
2024/03/23 08:41:00;;;;;;;11.85;7.40;;;;;;;12.42;53.64;100238.34;5048562;28;20025;-81
2024/03/23 08:43:26;;;;;;;11.02;7.82;;;;;;;12.73;53.37;100255.19;5047007;28;20052;-79
2024/03/23 08:45:52;;;;;;;11.70;7.88;;;;;;;12.75;50.13;100210.28;5047516;28;20451;-79
2024/03/23 08:48:20;;;;;;;11.65;7.65;;;;;;;13.04;49.98;100253.28;5049925;28;20027;-79
2024/03/23 08:50:46;;;;;;;13.65;7.90;;;;;;;12.83;53.78;100217.16;5052604;28;20033;-80
2024/03/23 08:53:11;;;;;;;10.27;7.22;;;;;;;13.01;49.93;100246.50;5045744;28;20037;-80
2024/03/23 08:55:37;;;;;;;14.18;8.00;;;;;;;13.20;48.35;100251.81;5046964;28;20505;-79
2024/03/23 08:58:03;;;;;;;13.07;8.00;;;;;;;13.62;46.58;100239.09;5047418;28;20127;-79
2024/03/23 09:00:29;;;;;;;11.50;8.00;;;;;;;13.74;50.50;100238.28;5047246;28;20207;-79
2024/03/23 09:02:55;;;;;;;13.30;7.47;;;;;;;13.33;52.15;100194.53;5046929;28;20024;-79
2024/03/23 09:05:21;;;;;;;11.13;7.32;;;;;;;13.80;48.78;100215.91;5044629;28;20109;-80
2024/03/23 09:07:46;;;;;;;12.20;7.45;;;;;;;13.57;49.60;100211.41;5046064;28;20025;-80
2024/03/23 09:10:11;;;;;;;12.48;7.50;;;;;;;13.62;49.70;100203.47;5044429;28;20037;-80
2024/03/23 09:12:37;;;;;;;14.43;7.60;;;;;;;13.61;49.12;100189.25;5042083;28;20135;-79
2024/03/23 09:15:02;;;;;;;26.88;19.05;;;;;;;14.43;48.69;100198.91;5039471;28;20045;-80
2024/03/23 09:17:28;;;;;;;11.63;7.28;;;;;;;14.45;47.02;100199.47;5044289;28;20036;-80
2024/03/23 09:19:53;;;;;;;13.32;8.05;;;;;;;14.76;49.66;100186.59;5043096;28;20095;-79
2024/03/23 09:22:19;;;;;;;11.70;8.25;;;;;;;14.36;48.03;100165.22;5037767;28;20033;-79
2024/03/23 09:24:44;;;;;;;13.02;7.68;;;;;;;14.85;47.73;100174.41;5045154;28;20136;-80
2024/03/23 09:27:09;;;;;;;11.40;6.57;;;;;;;14.79;44.85;100164.66;5046421;28;20025;-79
2024/03/23 09:29:35;;;;;;;10.45;6.82;;;;;;;14.75;44.69;100171.56;5045850;28;20067;-80
2024/03/23 09:32:00;;;;;;;10.90;7.25;;;;;;;15.30;44.35;100182.56;5044917;28;20083;-80
2024/03/23 09:34:26;;;;;;;11.13;7.40;;;;;;;15.49;42.77;100162.44;5046201;28;20037;-79
2024/03/23 09:36:52;;;;;;;11.15;7.53;;;;;;;15.43;46.78;100160.75;5046867;28;20028;-79
2024/03/23 09:39:18;;;;;;;9.90;6.97;;;;;;;15.53;44.34;100171.63;5043070;28;20037;-80
2024/03/23 09:41:43;;;;;;;9.93;6.63;;;;;;;15.56;44.27;100146.91;5039894;28;20106;-79
2024/03/23 09:44:09;;;;;;;9.82;5.93;;;;;;;15.94;44.17;100172.16;5046452;28;20040;-81
2024/03/23 09:46:36;;;;;;;9.63;5.93;;;;;;;15.97;43.95;100133.97;5047013;28;20032;-83
2024/03/23 09:49:04;;;;;;;10.05;6.55;;;;;;;16.20;41.28;100145.50;5066124;28;20483;-80
2024/03/23 09:51:29;;;;;;;;;;;;;;;16.35;40.81;100163.69;5050854;28;20792;-80
2024/03/23 09:53:55;;;;;;;9.57;6.25;;;;;;;16.81;39.23;100145.25;5049306;28;19991;-79
2024/03/23 09:56:21;;;;;;;11.25;5.82;;;;;;;16.73;40.33;100159.97;5049473;28;20111;-80
2024/03/23 09:58:46;;;;;;;8.95;5.97;;;;;;;16.42;43.11;100143.56;5049743;28;20108;-80
2024/03/23 10:01:12;;;;;;;10.43;6.25;;;;;;;16.83;39.93;100140.41;5049656;28;20041;-79
2024/03/23 10:03:47;;;;;;;8.70;5.57;;;;;;;16.51;39.92;100113.47;5049588;28;20136;-80
2024/03/23 10:06:12;;;;;;;10.02;6.50;;;;;;;16.80;39.65;100141.72;5049423;28;20635;-80
2024/03/23 10:08:38;;;;;;;8.48;5.70;;;;;;;16.85;40.06;100132.91;5049157;28;20021;-80
2024/03/23 10:11:17;;;;;;;9.55;5.63;;;;;;;17.01;39.42;100112.25;5049613;28;20032;-79
2024/03/23 10:13:43;;;;;;;9.20;5.05;;;;;;;16.73;40.26;100095.34;5044406;28;20025;-79
2024/03/23 10:16:09;;;;;;;8.27;5.00;;;;;;;17.43;36.62;100130.28;5052540;28;20472;-79
2024/03/23 10:18:39;;;;;;;9.88;5.85;;;;;;;17.09;35.47;100102.88;5050670;28;20057;-79
2024/03/23 10:21:10;;;;;;;7.13;4.35;;;;;;;17.30;34.02;100093.00;5049333;28;20494;-78
2024/03/23 10:23:41;;;;;;;8.45;5.35;;;;;;;17.70;35.56;100107.75;5047212;28;20482;-79
2024/03/23 10:26:21;;;;;;;9.18;5.22;;;;;;;18.39;35.18;100099.25;5049808;28;20111;-78
2024/03/23 10:29:03;;;;;;;8.90;5.70;;;;;;;18.40;36.16;100090.03;5049673;28;20128;-78
2024/03/23 10:31:30;;;;;;;8.73;5.35;;;;;;;18.09;35.21;100093.81;5048240;28;20041;-79
2024/03/23 10:33:56;;;;;;;8.40;5.80;;;;;;;17.93;35.24;100077.59;5049242;28;20029;-79
2024/03/23 10:36:22;;;;;;;8.45;4.93;;;;;;;17.96;34.49;100044.69;5049205;28;20655;-78
2024/03/23 10:38:50;;;;;;;8.40;5.05;;;;;;;18.77;31.98;100078.13;5050488;28;20029;-79
2024/03/23 10:41:15;;;;;;;8.15;5.25;;;;;;;19.17;32.77;100059.44;5049249;28;20056;-79
2024/03/23 10:43:42;;;;;;;8.13;4.97;;;;;;;19.32;29.01;100072.88;5049228;28;20544;-79
2024/03/23 10:46:08;;;;;;;8.73;4.82;;;;;;;19.71;29.86;100060.53;5049471;28;20041;-79
2024/03/23 10:48:34;;;;;;;8.07;4.50;;;;;;;19.07;29.15;100054.84;5048958;28;20052;-79
2024/03/23 10:51:00;;;;;;;13.63;5.15;;;;;;;19.04;30.27;100028.38;5058085;28;20143;-79
2024/03/23 10:53:27;;;;;;;6.78;4.20;;;;;;;19.30;29.59;100047.19;5047140;28;20481;-79
2024/03/23 10:55:55;;;;;;;9.50;4.13;;;;;;;19.77;30.23;100043.19;5049161;28;20494;-79
2024/03/23 10:58:46;;;;;;;6.15;3.10;;;;;;;19.59;28.47;100040.00;5049776;28;20415;-79
2024/03/23 11:01:13;;;;;;;6.43;3.15;;;;;;;19.28;29.19;100056.38;5057882;28;20037;-78
2024/03/23 11:03:40;;;;;;;4.88;2.50;;;;;;;19.14;25.25;100059.97;5047698;28;20056;-79
2024/03/23 11:06:07;;;;;;;5.40;3.00;;;;;;;18.43;25.57;100050.91;5048965;28;20509;-79
2024/03/23 11:08:39;;;;;;;8.05;3.75;;;;;;;18.68;26.34;100031.16;5047796;28;20043;-79
2024/03/23 11:11:18;;;;;;;4.22;2.42;;;;;;;18.59;25.53;100005.78;5049186;28;20040;-80
2024/03/23 11:13:43;;;;;;;4.65;2.30;;;;;;;19.00;24.27;100038.13;5043682;28;20044;-78
2024/03/23 11:16:32;;;;;;;4.13;2.10;;;;;;;19.34;21.31;100038.25;5041396;28;20025;-78
2024/03/23 11:19:36;;;;;;;5.03;2.38;;;;;;;19.94;20.32;100046.34;5048574;28;20037;-78